createdAt,value
2022-10-11T00:07:19.506Z,100
2022-10-11T00:17:19.757Z,100
2022-10-11T00:27:20.702Z,100
2022-10-11T00:37:21.068Z,100
2022-10-11T00:47:21.684Z,100
2022-10-11T00:57:21.989Z,100
2022-10-11T01:17:23.073Z,100
2022-10-11T01:57:25.007Z,100
2022-10-11T02:07:25.147Z,100
2022-10-11T02:17:26.158Z,100
2022-10-11T02:27:26.535Z,100
2022-10-11T02:37:26.963Z,100
2022-10-11T02:57:27.970Z,100
2022-10-11T03:07:28.489Z,100
2022-10-11T03:17:36.442Z,100
2022-10-11T03:27:29.750Z,100
2022-10-11T03:37:30.541Z,100
2022-10-11T03:57:31.357Z,100
2022-10-11T04:07:31.816Z,100
2022-10-11T04:17:32.486Z,100
2022-10-11T04:27:33.361Z,100
2022-10-11T04:37:34.160Z,100
2022-10-11T04:47:34.697Z,100
2022-10-11T04:57:35.363Z,100
2022-10-11T05:07:36.207Z,100
2022-10-11T05:37:37.907Z,100
2022-10-11T05:57:39.262Z,100
2022-10-11T06:17:40.091Z,100
2022-10-11T06:27:41.107Z,100
2022-10-11T06:37:41.516Z,100
2022-10-11T06:47:41.759Z,100
2022-10-11T06:57:42.324Z,100
2022-10-11T07:07:42.975Z,100
2022-10-11T07:17:43.934Z,100
2022-10-11T07:27:44.689Z,100
2022-10-11T07:37:45.690Z,100
2022-10-11T07:47:46.075Z,100
2022-10-11T07:57:46.183Z,100
2022-10-11T08:07:46.319Z,100
2022-10-11T08:17:47.007Z,100
2022-10-11T08:37:47.560Z,100
2022-10-11T08:57:48.203Z,100
2022-10-11T09:07:48.986Z,100
2022-10-11T09:17:49.372Z,100
2022-10-11T09:28:02.181Z,100
2022-10-11T09:37:50.513Z,100
2022-10-11T09:57:51.524Z,97
2022-10-11T10:07:51.963Z,93
2022-10-11T10:17:52.856Z,91
2022-10-11T10:27:53.622Z,86
2022-10-11T10:37:54.594Z,83
2022-10-11T10:47:55.176Z,82
2022-10-11T10:57:55.389Z,81
2022-10-11T11:07:56.507Z,79
2022-10-11T11:17:56.734Z,78
2022-10-11T11:27:57.304Z,75
2022-10-11T11:38:02.626Z,72
2022-10-11T11:47:58.339Z,66
2022-10-11T11:58:01.098Z,68
2022-10-11T12:18:00.133Z,67
2022-10-11T12:28:00.339Z,68
2022-10-11T12:38:00.891Z,67
2022-10-11T12:48:01.808Z,64
2022-10-11T12:58:02.885Z,64
2022-10-11T13:08:03.054Z,65
2022-10-11T13:18:03.951Z,62
2022-10-11T13:28:04.201Z,60
2022-10-11T13:38:04.806Z,60
2022-10-11T14:08:07.166Z,62
2022-10-11T14:18:08.100Z,61
2022-10-11T14:38:09.958Z,64
2022-10-11T14:48:10.232Z,64
2022-10-11T15:08:10.657Z,64
2022-10-11T15:18:11.034Z,60
2022-10-11T15:28:11.426Z,62
2022-10-11T15:38:12.108Z,64
2022-10-11T15:48:12.925Z,66
2022-10-11T15:58:13.491Z,67
2022-10-11T16:18:14.906Z,70
2022-10-11T16:28:15.508Z,73
2022-10-11T16:38:16.215Z,76
2022-10-11T16:48:17.061Z,78
2022-10-11T16:58:17.641Z,80
2022-10-11T17:08:18.681Z,82
2022-10-11T17:28:19.773Z,85
2022-10-11T17:38:20.320Z,86
2022-10-11T17:48:21.240Z,88
2022-10-11T17:58:22.084Z,89
2022-10-11T18:08:22.590Z,90
2022-10-11T18:18:23.554Z,91
2022-10-11T18:28:24.388Z,92
2022-10-11T18:38:24.534Z,92
2022-10-11T18:48:25.063Z,93
2022-10-11T19:08:26.817Z,94
2022-10-11T19:18:27.701Z,95
2022-10-11T19:28:28.473Z,95
2022-10-11T19:38:29.099Z,96
2022-10-11T19:48:30.040Z,96
2022-10-11T19:58:30.541Z,97
2022-10-11T20:08:31.484Z,97
2022-10-11T20:18:31.678Z,97
2022-10-11T20:38:32.968Z,98
2022-10-11T20:48:33.628Z,98
2022-10-11T20:58:34.166Z,99
2022-10-11T21:08:34.439Z,99
2022-10-11T21:18:34.804Z,99
2022-10-11T21:38:35.305Z,99
2022-10-11T21:48:35.562Z,100
2022-10-11T21:58:36.503Z,100
2022-10-11T22:08:36.855Z,100
2022-10-11T22:18:37.077Z,100
2022-10-11T22:38:38.319Z,100
2022-10-11T23:08:39.377Z,100
2022-10-11T23:48:41.631Z,100
2022-10-11T23:58:41.792Z,100
